Search for airport 
image banner adimage banner adimage banner ad
image banner ad

O43 - Yerington Muni

Located in Yerington, United States

ICAO - O43, IATA -

Data provided by Airmate  

General information

Coordinates: N39°0'20" W119°9'24"
Elevation is 4382 feet MSL.
Magnetic variation is 16° East
View others Airports in Nevada

Operational data

Special qualification required
Current time UTC:
Current local time:
Weather at : KMEV - Minden-Tahoe ( 51 km )
METAR: KMEV 132035Z AUTO 28010G17KT 10SM CLR 31/04 A2997 RMK AO2
TAF: KMEV 131720Z 1318/1418 VRB04KT P6SM SKC FM132100 26012G22KT P6SM FEW110 FM140400 11006KT P6SM SKC WS020/22035KT FM141600 19014G22KT P6SM FEW070
View NOTAMs / SUP AIP / TFR affecting this airport [VIEW]
Communications frequencies: [VIEW]

Runways:

RWY identifierQFULength (ft)Width (ft)SurfaceLDA (ft)
02581475ASPH
20581475ASPH

Airport contact information

Address: Yerington United States

Satellite view of O43